Virtual Norwegian is not affiliated with Norwegian Air Shuttle in any way.
If you are looking for the real "Norwegian", or you wish to book Norwegian flights, please visit Norwegian.com


We use cookies to ensure you get the best experience on our website.   ACCEPT

LIPZ - VCE - Venice (Venezia Tessera)

General Info Alternate Airport
ICAO: LIPZ Elevation: 7 ft ICAO: LIPH
IATA: VCE Country: Italy IATA: TSF
City: Venice Charts: Log in to view charts City: Treviso
Name: Venezia Tessera Hub: No Name Treviso
General Info
ICAO: LIPZ
IATA: VCE
City: Venice
Name: Venezia Tessera
Elevation: 7 ft
Country: Italy
Charts: Log in to view charts
Hub: No
 
Alternate Airport
ICAO: LIPH
IATA: TSF
City: Treviso
Name: Treviso

Weather
211720Z VRB02KT 7000 SCT030 16/12 Q1019 NOSIG
Weather
211720Z VRB02KT 7000 SCT030 16/12 Q1019 NOSIG

Runway Info
04L
Length ILS/LOC Heading
2780 m N/A 042
04R
Length ILS/LOC Course
3300 m 109.95 040
22L
Length ILS/LOC Heading
3300 m N/A 222
22R
Length ILS/LOC Heading
2780 m N/A 222

NOTAMs
NOTAMs currently unavailable.
NOTAMs
NOTAMs currently unavailable

Route map
Airport
Airport (hub)